TCMO2: Little River Nr Tecumseh, OK

Data processed at Wed Jun 19 2019 23:50


All information presented herein is the property of the government of the United States of America and may be revised or deleted at any time without prior notice.
Dissemination of this information without the expressed written consent of the Public Affairs Office, Tulsa District U.S. Army Corps of Engineers is strictly prohibited.
These data are gathered electronically and, as presented, have not undergone any form of quality control. These data are not guaranteed to be valid or correct.
Go to home page.
Go to station list.
Go to home page.

Upstream stations:

Downstream station:
Previous Day
Next Day
Current Day
    
SHEF ID:       TCMO2     Little River near Tecumseh, OK
STATION TYPE:  
Regulating: Stage =    11.00, Flow =     2132

                STAGE  RIV-FLOW  BAT-LOAD
                   ft       cfs      volt
              Ccp-Rev   Ccp-Rev   Ccp-Rev
(US/Central)
06/19 00:00      7.82       800     12.65
06/19 01:00      7.83       803     12.65
06/19 02:00      7.81       796     12.65
06/19 03:00      7.92       834     12.57
06/19 04:00      8.13       908     12.57
06/19 05:00      9.23      1330     12.57
06/19 06:00      9.58      1477     12.57
06/19 07:00      9.65      1508     12.57
06/19 08:00      9.53      1456     12.57
06/19 09:00      9.39      1397     12.65
06/19 10:00      9.27      1347     12.81
06/19 11:00      9.10      1277     12.97
06/19 12:00      9.05      1257     13.05
06/19 13:00      8.89      1193     13.05
06/19 14:00      8.72      1127     12.97
06/19 15:00      8.57      1069     12.97
06/19 16:00      8.50      1043     12.97
06/19 17:00      8.40      1006     12.97
06/19 18:00      8.30       969     13.05
06/19 19:00      8.21       936     13.05
06/19 20:00      8.21       936     12.89
06/19 21:00      8.13       908     12.73
06/19 22:00      8.10       897     12.65
06/19 23:00      8.07       886     12.65